Time;durP1;ratioP1;P1;durP2;ratioP2;P2;SDS_P1;SDS_P2;PMS_P1;PMS_P2;Temp;Humidity;BMP_temperature;BMP_pressure;BME280_temperature;BME280_humidity;BME280_pressure;Samples;Min_cycle;Max_cycle;Signal;HPM_P1;HPM_P2
2022/10/02 00:01:46;;;;;;;4.90;2.20;;;;;;;13.36;99.63;100231.66;10196771;28;20059;-64
2022/10/02 00:06:51;;;;;;;7.28;2.67;;;;;;;13.33;99.19;100215.84;10194480;28;20051;-63
2022/10/02 00:11:57;;;;;;;8.75;2.90;;;;;;;13.29;100.00;100225.13;10193593;28;20588;-64
2022/10/02 00:17:00;;;;;;;8.30;2.80;;;;;;;13.26;100.00;100230.78;10203722;28;20058;-63
2022/10/02 00:22:25;;;;;;;9.35;2.67;;;;;;;13.35;100.00;100243.31;10195549;28;20481;-63
2022/10/02 00:28:00;;;;;;;6.72;2.60;;;;;;;13.31;100.00;100246.38;10192745;28;20051;-64
2022/10/02 00:33:18;;;;;;;6.20;2.88;;;;;;;13.23;100.00;100239.91;10205175;28;20126;-63
2022/10/02 00:38:52;;;;;;;7.32;2.80;;;;;;;13.26;100.00;100228.09;10192752;28;20059;-62
2022/10/02 00:44:49;;;;;;;7.17;2.47;;;;;;;13.43;100.00;100251.47;10191572;28;20663;-61
2022/10/02 00:50:10;;;;;;;9.15;2.95;;;;;;;13.44;100.00;100252.31;10198167;28;20058;-63
2022/10/02 00:55:45;;;;;;;8.93;2.10;;;;;;;13.50;99.08;100256.25;10192716;28;20154;-63
2022/10/02 01:01:01;;;;;;;7.70;2.72;;;;;;;13.42;98.47;100230.22;10185783;28;20058;-62
2022/10/02 01:06:02;;;;;;;7.40;2.38;;;;;;;13.54;98.97;100244.28;10189953;28;20052;-63
2022/10/02 01:11:05;;;;;;;6.43;3.10;;;;;;;13.58;98.46;100240.31;10191185;28;20458;-63
2022/10/02 01:16:11;;;;;;;10.40;2.53;;;;;;;13.50;98.31;100237.53;10206263;28;20203;-63
2022/10/02 01:21:41;;;;;;;9.35;2.72;;;;;;;13.51;99.17;100225.84;10192565;28;20051;-63
2022/10/02 01:26:43;;;;;;;5.90;2.17;;;;;;;13.50;99.41;100224.16;10190153;28;20056;-63
2022/10/02 01:31:44;;;;;;;7.60;3.17;;;;;;;13.53;98.86;100231.91;10203729;28;20260;-63
2022/10/02 01:36:46;;;;;;;8.68;2.55;;;;;;;13.50;99.23;100233.03;10192544;28;20533;-62
2022/10/02 01:41:47;;;;;;;9.10;2.42;;;;;;;13.54;99.68;100266.53;10191728;28;20070;-63
2022/10/02 01:47:01;;;;;;;7.55;2.47;;;;;;;13.46;100.00;100252.19;10188301;28;20051;-62
2022/10/02 01:52:29;;;;;;;4.90;1.87;;;;;;;13.50;100.00;100253.59;10194692;28;20198;-62
2022/10/02 01:57:55;;;;;;;9.20;2.45;;;;;;;13.50;100.00;100257.09;10198739;28;20039;-63
2022/10/02 02:03:30;;;;;;;10.00;2.58;;;;;;;13.50;100.00;100264.28;10190622;28;20051;-62
2022/10/02 02:08:44;;;;;;;8.32;2.38;;;;;;;13.48;100.00;100263.56;10187330;28;20036;-62
2022/10/02 02:14:00;;;;;;;7.93;2.47;;;;;;;13.54;100.00;100258.50;10192018;28;20064;-64
2022/10/02 02:19:18;;;;;;;6.80;1.98;;;;;;;13.50;100.00;100258.94;10188651;28;20052;-62
2022/10/02 02:24:24;;;;;;;7.13;2.42;;;;;;;13.50;100.00;100264.28;10189369;28;20051;-63
2022/10/02 02:29:29;;;;;;;6.00;1.70;;;;;;;13.49;100.00;100257.25;10184715;28;20047;-61
2022/10/02 02:34:34;;;;;;;8.32;3.03;;;;;;;13.45;100.00;100248.66;10188630;28;20062;-63
2022/10/02 02:39:50;;;;;;;8.02;1.70;;;;;;;13.44;100.00;100250.47;10190202;28;20499;-63
2022/10/02 02:44:55;;;;;;;7.53;1.85;;;;;;;13.41;100.00;100253.44;10187496;28;20047;-64
2022/10/02 02:50:01;;;;;;;8.98;2.15;;;;;;;13.38;100.00;100256.41;10188865;28;20047;-62
2022/10/02 02:55:11;;;;;;;6.07;2.28;;;;;;;13.41;100.00;100253.44;10184634;28;20055;-63
2022/10/02 03:00:18;;;;;;;7.05;2.20;;;;;;;13.43;100.00;100264.81;10190409;28;20063;-63
2022/10/02 03:05:23;;;;;;;6.63;2.03;;;;;;;13.42;99.93;100262.28;10189950;28;20834;-61
2022/10/02 03:10:38;;;;;;;11.02;2.22;;;;;;;13.46;99.99;100274.41;10190352;28;20129;-62
2022/10/02 03:15:46;;;;;;;5.95;1.90;;;;;;;13.44;100.00;100271.03;10191958;28;20051;-63
2022/10/02 03:21:01;;;;;;;9.80;2.65;;;;;;;13.37;100.00;100253.88;10187153;28;20058;-62
2022/10/02 03:26:10;;;;;;;6.00;2.00;;;;;;;13.32;100.00;100242.72;10191054;28;20047;-64
2022/10/02 03:31:14;;;;;;;5.43;1.98;;;;;;;13.27;100.00;100244.00;10183617;28;20047;-64
2022/10/02 03:36:23;;;;;;;6.68;2.10;;;;;;;13.24;100.00;100227.38;10190111;28;20103;-64
2022/10/02 03:41:24;;;;;;;8.23;2.30;;;;;;;13.16;100.00;100227.25;10203217;28;20047;-62
2022/10/02 03:46:25;;;;;;;9.23;2.75;;;;;;;13.25;100.00;100245.09;10184758;28;20056;-62
2022/10/02 03:51:27;;;;;;;5.38;2.08;;;;;;;13.27;100.00;100262.72;10188469;28;20146;-65
2022/10/02 03:56:42;;;;;;;5.85;1.90;;;;;;;13.33;100.00;100274.66;10183604;28;20056;-62
2022/10/02 04:01:50;;;;;;;6.90;2.25;;;;;;;13.32;100.00;100277.50;10189701;28;20063;-64
2022/10/02 04:07:10;;;;;;;8.20;2.55;;;;;;;13.24;100.00;100256.78;10210433;28;20109;-64
2022/10/02 04:12:16;;;;;;;6.00;1.67;;;;;;;13.36;100.00;100263.72;10194794;28;20063;-64
2022/10/02 04:17:28;;;;;;;10.88;2.13;;;;;;;13.34;100.00;100268.34;10207621;28;20110;-65
2022/10/02 04:22:35;;;;;;;7.32;2.38;;;;;;;13.35;100.00;100262.03;10192887;28;20691;-63
2022/10/02 04:27:43;;;;;;;8.18;2.63;;;;;;;13.29;100.00;100267.91;10198787;28;20051;-63
2022/10/02 04:32:45;;;;;;;8.63;2.70;;;;;;;13.35;100.00;100272.72;10193400;28;20051;-62
2022/10/02 04:38:03;;;;;;;8.82;2.78;;;;;;;13.41;100.00;100265.97;10193123;28;20047;-63
2022/10/02 04:43:36;;;;;;;8.80;2.65;;;;;;;13.42;100.00;100284.53;10194642;28;20062;-63
2022/10/02 04:49:05;;;;;;;5.75;3.15;;;;;;;13.42;100.00;100294.38;10190436;28;20043;-63
2022/10/02 04:54:36;;;;;;;8.23;2.72;;;;;;;13.47;100.00;100277.94;10191243;28;20765;-64
2022/10/02 04:59:40;;;;;;;6.55;2.75;;;;;;;13.43;100.00;100280.88;10203056;28;20082;-63
2022/10/02 05:05:18;;;;;;;;;;;;;;;13.42;100.00;100273.84;10198026;28;20055;-64
2022/10/02 05:10:31;;;;;;;6.55;2.88;;;;;;;13.41;100.00;100269.47;10199521;28;20313;-64
2022/10/02 05:15:56;;;;;;;6.60;3.30;;;;;;;13.43;100.00;100266.66;10195640;28;20128;-63
2022/10/02 05:21:15;;;;;;;8.45;3.70;;;;;;;13.41;100.00;100260.63;10196625;28;20043;-62
2022/10/02 05:26:28;;;;;;;9.27;2.88;;;;;;;13.40;100.00;100274.97;10188477;28;20052;-63
2022/10/02 05:31:46;;;;;;;8.35;2.70;;;;;;;13.30;100.00;100266.94;10186322;28;20059;-63
2022/10/02 05:36:56;;;;;;;8.25;3.35;;;;;;;13.24;100.00;100259.44;10182263;28;20220;-64
2022/10/02 05:42:22;;;;;;;10.48;3.50;;;;;;;13.34;100.00;100273.69;10176459;28;20510;-62
2022/10/02 05:47:30;;;;;;;11.63;3.40;;;;;;;13.26;100.00;100276.22;10180929;28;20563;-62
2022/10/02 05:52:39;;;;;;;11.38;4.22;;;;;;;13.27;100.00;100280.59;10179982;28;20043;-63
2022/10/02 05:58:00;;;;;;;8.93;3.10;;;;;;;13.38;100.00;100295.66;10178465;28;20048;-64
2022/10/02 06:03:11;;;;;;;10.43;3.17;;;;;;;13.31;100.00;100297.16;10180623;28;20062;-63
2022/10/02 06:08:21;;;;;;;11.20;4.07;;;;;;;13.32;100.00;100299.72;10182432;28;20643;-62
2022/10/02 06:13:34;;;;;;;7.40;3.53;;;;;;;13.36;100.00;100289.59;10177682;28;20134;-61
2022/10/02 06:18:40;;;;;;;8.02;3.60;;;;;;;13.35;100.00;100282.59;10179483;28;20059;-62
2022/10/02 06:23:46;;;;;;;11.25;4.63;;;;;;;13.40;100.00;100277.66;10179445;28;20062;-61
2022/10/02 06:28:53;;;;;;;9.20;3.72;;;;;;;13.37;100.00;100277.94;10178100;28;20571;-61
2022/10/02 06:33:54;;;;;;;8.38;3.58;;;;;;;13.37;100.00;100281.44;10195178;28;20082;-65
2022/10/02 06:39:05;;;;;;;8.70;3.75;;;;;;;13.44;100.00;100287.91;10193211;28;20517;-62
2022/10/02 06:44:48;;;;;;;10.95;4.60;;;;;;;13.33;100.00;100296.06;10172048;28;20055;-63
2022/10/02 06:50:19;;;;;;;6.18;3.25;;;;;;;13.39;100.00;100303.53;10176297;28;20052;-62
2022/10/02 06:55:51;;;;;;;6.35;3.30;;;;;;;13.40;100.00;100305.22;10175668;28;20535;-62
2022/10/02 07:01:45;;;;;;;8.63;3.55;;;;;;;13.29;100.00;100301.81;10205963;28;20128;-63
2022/10/02 07:07:13;;;;;;;6.45;2.83;;;;;;;13.35;100.00;100306.66;10178684;28;20473;-61
2022/10/02 07:12:36;;;;;;;6.15;3.08;;;;;;;13.40;100.00;100310.56;10178427;28;20376;-62
2022/10/02 07:18:09;;;;;;;6.63;2.53;;;;;;;13.33;100.00;100312.09;10177661;28;20323;-60
2022/10/02 07:23:31;;;;;;;5.93;2.45;;;;;;;13.29;100.00;100300.00;10177484;28;20055;-60
2022/10/02 07:28:42;;;;;;;6.93;2.70;;;;;;;13.37;100.00;100316.19;10179229;28;20051;-60
2022/10/02 07:34:21;;;;;;;7.43;2.45;;;;;;;13.47;100.00;100312.69;10175590;28;20119;-62
2022/10/02 07:39:41;;;;;;;11.57;2.92;;;;;;;13.46;100.00;100311.00;10180308;28;20058;-63
2022/10/02 07:45:06;;;;;;;7.90;2.55;;;;;;;13.42;100.00;100319.31;10182020;28;20146;-63
2022/10/02 07:50:30;;;;;;;5.45;2.28;;;;;;;13.36;100.00;100327.88;10183010;28;20077;-63
2022/10/02 07:55:32;;;;;;;4.80;2.10;;;;;;;13.35;100.00;100314.66;10183395;28;20442;-64
2022/10/02 08:01:01;;;;;;;5.22;2.50;;;;;;;13.40;100.00;100326.59;10183248;28;20059;-64
2022/10/02 08:06:04;;;;;;;3.78;1.98;;;;;;;13.46;100.00;100316.34;10185180;28;20388;-64
2022/10/02 08:11:10;;;;;;;6.85;2.30;;;;;;;13.53;100.00;100320.16;10183462;28;20379;-65
2022/10/02 08:16:15;;;;;;;4.22;2.10;;;;;;;13.61;100.00;100328.31;10189333;28;20063;-62
2022/10/02 08:21:19;;;;;;;5.13;2.15;;;;;;;13.67;100.00;100340.28;10183463;28;20059;-63
2022/10/02 08:26:29;;;;;;;5.50;1.40;;;;;;;13.53;100.00;100330.84;10189893;28;20051;-63
2022/10/02 08:31:36;;;;;;;4.10;1.88;;;;;;;13.60;100.00;100318.59;10190941;28;20078;-64
2022/10/02 08:36:57;;;;;;;4.03;1.50;;;;;;;13.74;100.00;100341.41;10186732;28;20130;-62
2022/10/02 08:42:46;;;;;;;2.88;2.10;;;;;;;13.89;100.00;100323.06;10183413;28;20464;-63
2022/10/02 08:48:23;;;;;;;3.50;1.38;;;;;;;13.84;100.00;100320.84;10204059;28;20528;-62
2022/10/02 08:53:31;;;;;;;4.30;1.10;;;;;;;13.93;100.00;100335.16;10180527;28;20035;-63
2022/10/02 08:59:09;;;;;;;2.30;1.50;;;;;;;14.02;100.00;100344.16;10198246;28;20078;-67
2022/10/02 09:04:39;;;;;;;3.58;1.10;;;;;;;14.01;100.00;100348.69;10182774;28;20497;-66
2022/10/02 09:10:08;;;;;;;3.90;1.20;;;;;;;14.07;100.00;100353.47;10186677;28;20058;-64
2022/10/02 09:15:14;;;;;;;4.03;1.52;;;;;;;14.12;100.00;100361.06;10181510;28;20422;-63
2022/10/02 09:20:39;;;;;;;2.85;1.98;;;;;;;14.01;100.00;100359.38;10178893;28;20055;-63
2022/10/02 09:25:49;;;;;;;;;;;;;;;14.06;100.00;100345.56;10184494;28;20055;-64
2022/10/02 09:31:02;;;;;;;2.42;1.35;;;;;;;13.92;100.00;100336.16;10181623;28;21917;-63
2022/10/02 09:36:50;;;;;;;3.55;1.35;;;;;;;13.98;100.00;100348.97;10199639;28;20052;-64
2022/10/02 09:42:29;;;;;;;2.63;1.90;;;;;;;14.04;100.00;100353.75;10180590;28;20474;-65
2022/10/02 09:48:03;;;;;;;2.13;1.73;;;;;;;13.98;100.00;100324.88;10214721;28;20757;-62
2022/10/02 09:53:14;;;;;;;3.90;2.27;;;;;;;14.05;100.00;100341.19;10212294;28;20048;-64
2022/10/02 09:59:15;;;;;;;3.85;1.92;;;;;;;14.18;100.00;100335.56;10202920;28;20300;-65
2022/10/02 10:04:52;;;;;;;3.05;2.20;;;;;;;14.23;100.00;100326.09;10113762;29;20063;-64
2022/10/02 10:10:31;;;;;;;2.85;1.80;;;;;;;14.20;100.00;100329.06;10188923;28;20138;-65
2022/10/02 10:15:55;;;;;;;3.28;2.33;;;;;;;13.98;100.00;100292.78;10199283;28;20054;-64
2022/10/02 10:21:05;;;;;;;2.05;1.85;;;;;;;14.20;100.00;100325.53;10191679;28;20059;-72
2022/10/02 10:26:26;;;;;;;2.67;1.63;;;;;;;14.14;100.00;100322.47;10182452;28;20410;-65
2022/10/02 10:31:47;;;;;;;2.28;1.75;;;;;;;14.18;100.00;100327.53;10182845;28;20058;-64
2022/10/02 10:42:49;;;;;;;1.73;1.38;;;;;;;14.29;100.00;100336.22;10184877;28;20047;-64
2022/10/02 10:48:26;;;;;;;2.63;1.42;;;;;;;14.31;100.00;100344.13;10181433;28;20047;-63
2022/10/02 10:53:58;;;;;;;1.70;1.00;;;;;;;14.21;100.00;100329.91;10178873;28;20512;-62
2022/10/02 10:59:26;;;;;;;2.53;1.33;;;;;;;14.39;100.00;100357.59;10189590;28;20058;-63
2022/10/02 11:04:54;;;;;;;2.88;1.48;;;;;;;14.27;100.00;100359.59;10178154;28;20063;-65
2022/10/02 11:10:17;;;;;;;2.92;1.85;;;;;;;14.34;100.00;100349.19;10177656;28;20047;-64
2022/10/02 11:15:38;;;;;;;2.78;2.00;;;;;;;14.28;100.00;100361.31;10177583;28;20059;-62
2022/10/02 11:20:55;;;;;;;2.20;1.75;;;;;;;14.29;100.00;100368.34;10178416;28;20742;-63
2022/10/02 11:26:08;;;;;;;1.63;1.52;;;;;;;14.41;100.00;100350.28;10177850;28;20121;-64
2022/10/02 11:31:23;;;;;;;2.20;1.42;;;;;;;14.33;100.00;100350.16;10178687;28;20677;-64
2022/10/02 11:36:51;;;;;;;3.35;1.00;;;;;;;14.36;100.00;100352.53;10179095;28;20127;-64
2022/10/02 11:42:15;;;;;;;2.03;1.63;;;;;;;14.48;100.00;100372.78;10178413;28;20044;-64
2022/10/02 11:47:34;;;;;;;1.23;0.80;;;;;;;14.31;100.00;100370.88;10177877;28;20133;-63
2022/10/02 11:52:54;;;;;;;1.92;0.82;;;;;;;14.34;100.00;100375.94;10176751;28;20047;-62
2022/10/02 11:58:08;;;;;;;1.02;0.60;;;;;;;14.36;100.00;100382.00;10187696;28;20046;-63
2022/10/02 12:03:23;;;;;;;1.08;0.80;;;;;;;14.35;100.00;100366.91;10176056;28;20047;-61
2022/10/02 12:08:53;;;;;;;1.05;0.90;;;;;;;14.58;100.00;100377.28;10175352;28;20044;-63
2022/10/02 12:14:07;;;;;;;2.22;1.00;;;;;;;14.65;100.00;100376.59;10177673;28;20722;-64
2022/10/02 12:19:17;;;;;;;1.35;0.70;;;;;;;14.66;100.00;100374.75;10173448;28;20051;-63
2022/10/02 12:26:57;;;;;;;3.92;1.20;;;;;;;14.59;100.00;100370.94;10177288;28;20544;-64
2022/10/02 12:30:15;;;;;;;1.58;1.00;;;;;;;14.58;100.00;100371.94;10188312;28;20047;-64
2022/10/02 12:35:26;;;;;;;1.30;0.90;;;;;;;14.67;100.00;100365.72;10188488;28;20094;-64
2022/10/02 12:40:59;;;;;;;1.38;0.88;;;;;;;14.75;100.00;100363.13;10192400;28;20047;-61
2022/10/02 12:46:32;;;;;;;2.25;1.58;;;;;;;14.88;100.00;100362.81;10178396;28;20054;-63
2022/10/02 12:52:12;;;;;;;1.63;1.20;;;;;;;14.89;100.00;100348.38;10184040;28;20066;-64
2022/10/02 12:57:54;;;;;;;1.77;1.13;;;;;;;14.95;100.00;100363.03;10181798;28;20553;-60
2022/10/02 13:03:14;;;;;;;1.63;1.20;;;;;;;14.73;100.00;100354.41;10183999;28;20058;-61
2022/10/02 13:08:47;;;;;;;2.15;1.30;;;;;;;14.76;100.00;100364.84;10179130;28;20417;-61
2022/10/02 13:14:00;;;;;;;1.88;1.10;;;;;;;14.78;100.00;100359.31;10183353;28;20062;-61
2022/10/02 13:19:34;;;;;;;1.20;0.95;;;;;;;14.82;100.00;100358.88;10184308;28;20067;-61
2022/10/02 13:24:52;;;;;;;0.93;0.68;;;;;;;14.83;100.00;100365.06;10182710;28;20146;-61
2022/10/02 13:30:15;;;;;;;2.28;1.52;;;;;;;14.90;100.00;100365.34;10181955;28;20055;-61
2022/10/02 13:35:44;;;;;;;1.73;1.20;;;;;;;14.97;100.00;100367.25;10209022;28;20154;-61
2022/10/02 13:40:59;;;;;;;1.55;0.85;;;;;;;14.97;100.00;100364.59;10186624;28;20511;-61
2022/10/02 13:46:23;;;;;;;1.67;1.02;;;;;;;14.98;100.00;100368.97;10183381;28;20529;-62
2022/10/02 13:51:35;;;;;;;1.90;1.00;;;;;;;15.07;100.00;100374.41;10177695;28;20058;-60
2022/10/02 13:56:50;;;;;;;1.17;0.70;;;;;;;15.08;100.00;100376.09;10180974;28;20139;-62
2022/10/02 14:02:32;;;;;;;0.90;0.63;;;;;;;14.98;100.00;100368.97;10182175;28;20051;-62
2022/10/02 14:07:49;;;;;;;1.75;0.85;;;;;;;15.03;100.00;100376.56;10177939;28;20059;-62
2022/10/02 14:13:19;;;;;;;1.05;0.50;;;;;;;15.04;100.00;100367.50;10180155;28;20402;-63
2022/10/02 14:19:01;;;;;;;2.13;0.98;;;;;;;15.13;100.00;100361.25;10181770;28;20119;-63
2022/10/02 14:24:58;;;;;;;1.40;1.02;;;;;;;15.23;100.00;100371.06;10183294;28;21528;-64
2022/10/02 14:29:53;;;;;;;1.95;0.95;;;;;;;15.22;100.00;100374.75;10181591;28;20051;-59
2022/10/02 14:35:22;;;;;;;2.20;1.05;;;;;;;15.24;100.00;100372.75;10174384;28;20115;-65
2022/10/02 14:40:32;;;;;;;1.80;0.80;;;;;;;15.25;100.00;100375.28;10182473;28;20059;-61
2022/10/02 14:45:58;;;;;;;2.00;1.02;;;;;;;15.29;100.00;100367.78;10181855;28;20055;-61
2022/10/02 14:51:18;;;;;;;1.35;1.00;;;;;;;15.06;100.00;100373.56;10180338;28;20063;-63
2022/10/02 14:56:46;;;;;;;2.15;1.23;;;;;;;15.11;100.00;100398.09;10180436;28;20062;-64
2022/10/02 15:02:09;;;;;;;2.75;1.20;;;;;;;15.10;100.00;100392.88;10184091;28;20070;-64
2022/10/02 15:07:13;;;;;;;1.85;0.95;;;;;;;15.15;100.00;100395.97;10204411;28;20730;-64
2022/10/02 15:12:22;;;;;;;1.77;1.13;;;;;;;15.12;100.00;100397.09;10180479;28;20055;-64
2022/10/02 15:22:59;;;;;;;1.80;1.20;;;;;;;15.03;100.00;100392.63;10178448;28;22582;-63
2022/10/02 15:28:17;;;;;;;1.30;0.90;;;;;;;15.05;100.00;100404.03;10180142;28;20047;-63
2022/10/02 15:33:56;;;;;;;3.13;1.60;;;;;;;15.05;100.00;100389.81;10180654;28;20055;-63
2022/10/02 15:39:35;;;;;;;1.70;1.00;;;;;;;14.94;100.00;100393.53;10181326;28;20491;-64
2022/10/02 15:44:55;;;;;;;1.85;1.17;;;;;;;14.95;100.00;100392.53;10206836;28;20047;-64
2022/10/02 15:50:20;;;;;;;3.13;1.73;;;;;;;15.00;100.00;100392.94;10177205;28;20051;-65
2022/10/02 15:55:38;;;;;;;3.85;1.75;;;;;;;15.00;100.00;100403.66;10195932;28;20682;-65
2022/10/02 16:01:14;;;;;;;2.08;1.90;;;;;;;14.94;100.00;100404.25;10186275;28;20099;-64
2022/10/02 16:06:53;;;;;;;3.85;1.70;;;;;;;14.93;100.00;100407.91;10187442;28;20051;-64
2022/10/02 16:12:00;;;;;;;2.85;1.80;;;;;;;14.88;100.00;100415.53;10185405;28;20055;-63
2022/10/02 16:17:15;;;;;;;2.78;2.13;;;;;;;14.87;100.00;100416.56;10212250;28;20059;-64
2022/10/02 16:22:54;;;;;;;4.38;1.98;;;;;;;14.78;100.00;100429.00;10185521;28;20505;-63
2022/10/02 16:28:32;;;;;;;2.95;2.15;;;;;;;14.72;100.00;100438.44;10196743;28;20052;-63
2022/10/02 16:34:00;;;;;;;5.82;2.53;;;;;;;14.71;100.00;100441.28;10184487;28;20051;-60
2022/10/02 16:39:23;;;;;;;3.10;1.95;;;;;;;14.61;100.00;100452.03;10192450;28;20077;-64
2022/10/02 16:45:12;;;;;;;4.85;2.40;;;;;;;14.61;100.00;100458.22;10183011;28;20469;-62
2022/10/02 16:50:26;;;;;;;2.35;1.95;;;;;;;14.62;100.00;100465.28;10197091;28;20519;-62
2022/10/02 16:55:36;;;;;;;4.95;2.03;;;;;;;14.50;100.00;100453.84;10184511;28;20047;-63
2022/10/02 17:00:53;;;;;;;2.83;2.22;;;;;;;14.53;100.00;100470.63;10184914;28;20488;-66
2022/10/02 17:06:31;;;;;;;3.47;3.08;;;;;;;14.53;100.00;100481.34;10183129;28;20051;-63
2022/10/02 17:11:46;;;;;;;3.05;2.30;;;;;;;14.38;100.00;100480.94;10176815;28;20047;-66
2022/10/02 17:16:56;;;;;;;4.50;2.45;;;;;;;14.43;100.00;100513.50;10183547;28;20066;-65
2022/10/02 17:22:02;;;;;;;6.32;3.47;;;;;;;14.38;100.00;100521.09;10183671;28;20047;-65
2022/10/02 17:27:15;;;;;;;5.28;3.83;;;;;;;14.36;100.00;100529.28;10183480;28;20051;-64
2022/10/02 17:32:45;;;;;;;6.75;4.43;;;;;;;14.31;100.00;100535.06;10198073;28;20423;-63
2022/10/02 17:38:06;;;;;;;5.40;4.40;;;;;;;14.27;100.00;100546.19;10195345;28;20612;-62
2022/10/02 17:43:31;;;;;;;5.90;4.13;;;;;;;14.22;100.00;100540.44;10181864;28;20051;-65
2022/10/02 17:48:38;;;;;;;4.63;3.67;;;;;;;14.17;100.00;100550.69;10179872;28;20092;-64
2022/10/02 17:59:49;;;;;;;6.15;4.03;;;;;;;14.05;100.00;100566.91;10178836;28;20123;-64
2022/10/02 18:05:17;;;;;;;7.05;4.18;;;;;;;14.01;100.00;100576.19;10182070;28;20054;-63
2022/10/02 18:10:25;;;;;;;8.13;4.15;;;;;;;14.04;100.00;100596.47;10177525;28;20132;-61
2022/10/02 18:15:48;;;;;;;7.10;5.03;;;;;;;13.98;100.00;100595.19;10191396;28;20047;-64
2022/10/02 18:21:02;;;;;;;5.68;4.40;;;;;;;14.02;100.00;100611.81;10171740;28;20540;-62
2022/10/02 18:26:10;;;;;;;8.40;4.38;;;;;;;14.02;100.00;100628.72;10168100;28;20062;-63
2022/10/02 18:31:39;;;;;;;6.85;4.63;;;;;;;13.96;100.00;100623.91;10177396;28;20178;-62
2022/10/02 18:37:23;;;;;;;7.20;4.10;;;;;;;13.88;100.00;100623.75;10175234;28;20055;-63
2022/10/02 18:43:14;;;;;;;8.13;4.90;;;;;;;13.87;100.00;100643.44;10195331;28;20067;-64
2022/10/02 18:48:46;;;;;;;6.03;3.38;;;;;;;13.80;100.00;100637.81;10182982;28;20783;-65
2022/10/02 18:54:10;;;;;;;4.85;3.85;;;;;;;13.75;99.75;100645.38;10184257;28;20047;-64
2022/10/02 18:59:35;;;;;;;6.00;3.45;;;;;;;13.74;99.65;100649.06;10207494;28;20430;-63
2022/10/02 19:04:49;;;;;;;5.95;4.53;;;;;;;13.75;97.10;100662.28;10179521;28;20049;-65
2022/10/02 19:10:27;;;;;;;7.13;5.13;;;;;;;13.76;97.74;100666.66;10174918;28;22202;-62
2022/10/02 19:15:30;;;;;;;6.05;3.78;;;;;;;13.79;97.49;100665.53;10192469;28;20052;-62
2022/10/02 19:20:32;;;;;;;5.50;4.00;;;;;;;13.88;97.48;100679.94;10183088;28;20083;-62
2022/10/02 19:25:35;;;;;;;6.85;3.97;;;;;;;13.89;97.92;100677.13;10193933;28;20086;-66
2022/10/02 19:30:36;;;;;;;9.25;5.07;;;;;;;14.02;97.97;100687.63;10179869;28;20275;-65
2022/10/02 19:35:43;;;;;;;6.85;4.00;;;;;;;14.09;98.40;100701.28;10186629;28;20055;-64
2022/10/02 19:40:50;;;;;;;4.45;3.78;;;;;;;14.00;97.08;100692.25;10185721;28;20062;-65
2022/10/02 19:45:55;;;;;;;6.43;3.97;;;;;;;14.10;97.62;100716.38;10189475;28;20818;-63
2022/10/02 19:51:02;;;;;;;5.13;3.60;;;;;;;14.10;95.58;100724.41;10189928;28;20050;-65
2022/10/02 19:56:14;;;;;;;7.20;3.70;;;;;;;14.06;94.85;100726.50;10188184;28;20568;-64
2022/10/02 20:01:21;;;;;;;9.30;4.32;;;;;;;14.07;96.66;100738.91;10190316;28;20523;-64
2022/10/02 20:06:26;;;;;;;5.60;3.97;;;;;;;13.96;97.32;100712.22;10186750;28;20513;-64
2022/10/02 20:11:41;;;;;;;4.55;3.75;;;;;;;14.05;93.21;100748.91;10190803;28;20047;-64
2022/10/02 20:22:15;;;;;;;4.85;3.35;;;;;;;14.23;95.14;100758.97;10187346;28;20538;-64
2022/10/02 20:27:41;;;;;;;7.63;4.83;;;;;;;14.19;94.09;100754.88;10185335;28;20062;-64
2022/10/02 20:33:09;;;;;;;5.40;4.53;;;;;;;14.13;93.69;100773.16;10192658;28;20058;-66
2022/10/02 20:38:27;;;;;;;7.20;4.72;;;;;;;14.00;91.12;100761.81;10193578;28;20519;-65
2022/10/02 20:43:39;;;;;;;9.25;4.25;;;;;;;13.96;91.08;100776.44;10198706;28;20395;-64
2022/10/02 20:48:56;;;;;;;6.18;3.60;;;;;;;13.86;91.08;100783.59;10191918;28;20043;-65
2022/10/02 20:54:41;;;;;;;6.85;4.10;;;;;;;13.79;92.30;100800.16;10192955;28;20051;-64
2022/10/02 21:00:02;;;;;;;5.93;4.65;;;;;;;13.73;92.77;100799.84;10196044;28;20051;-63
2022/10/02 21:05:10;;;;;;;7.78;4.03;;;;;;;13.58;90.79;100796.63;10191969;28;20391;-69
2022/10/02 21:10:23;;;;;;;7.43;4.07;;;;;;;13.53;90.43;100804.22;10194426;28;20570;-64
2022/10/02 21:15:33;;;;;;;8.52;4.82;;;;;;;13.54;90.80;100814.78;10192644;28;20082;-65
2022/10/02 21:20:58;;;;;;;5.55;4.05;;;;;;;13.43;92.14;100810.31;10188773;28;20830;-63
2022/10/02 21:26:08;;;;;;;10.93;5.18;;;;;;;13.49;91.90;100819.66;10206055;28;20048;-64
2022/10/02 21:31:37;;;;;;;7.85;5.63;;;;;;;13.56;93.61;100828.03;10188670;28;20051;-64
2022/10/02 21:36:51;;;;;;;10.68;4.72;;;;;;;13.56;94.20;100833.38;10189085;28;20043;-63
2022/10/02 21:42:16;;;;;;;6.15;4.30;;;;;;;13.55;93.22;100834.34;10189387;28;20501;-64
2022/10/02 21:47:24;;;;;;;8.27;5.07;;;;;;;13.52;92.84;100837.28;10204880;28;20047;-64
2022/10/02 21:53:04;;;;;;;9.02;5.85;;;;;;;13.26;92.44;100813.53;10190810;28;20055;-64
2022/10/02 21:58:48;;;;;;;9.35;5.97;;;;;;;13.34;94.52;100831.63;10191921;28;20047;-63
2022/10/02 22:04:34;;;;;;;13.07;7.20;;;;;;;13.43;94.23;100868.31;10187096;28;20082;-62
2022/10/02 22:10:01;;;;;;;8.05;7.00;;;;;;;13.35;95.82;100874.28;10191738;28;22523;-62
2022/10/02 22:15:20;;;;;;;10.20;6.20;;;;;;;13.26;95.98;100867.00;10202242;28;20050;-63
2022/10/02 22:20:42;;;;;;;9.95;6.82;;;;;;;13.13;96.53;100882.34;10189009;28;20086;-63
2022/10/02 22:25:57;;;;;;;13.25;7.85;;;;;;;13.09;97.02;100893.28;10188715;28;20058;-64
2022/10/02 22:31:09;;;;;;;11.85;7.47;;;;;;;13.13;97.93;100901.91;10191559;28;20054;-62
2022/10/02 22:36:29;;;;;;;8.60;7.22;;;;;;;13.16;98.07;100912.34;10187252;28;20155;-63
2022/10/02 22:41:39;;;;;;;11.50;7.00;;;;;;;13.04;96.97;100911.50;10187448;28;20628;-63
2022/10/02 22:47:06;;;;;;;9.43;6.95;;;;;;;13.08;96.89;100929.00;10189337;28;20043;-63
2022/10/02 22:52:30;;;;;;;11.48;6.45;;;;;;;13.00;96.65;100935.91;10185327;28;20052;-61
2022/10/02 22:57:38;;;;;;;10.98;8.23;;;;;;;12.90;96.86;100941.16;10181822;28;20540;-62
2022/10/02 23:03:01;;;;;;;8.77;7.53;;;;;;;12.91;98.34;100932.19;10182033;28;20082;-63
2022/10/02 23:08:17;;;;;;;7.93;6.20;;;;;;;12.85;97.38;100936.19;10185803;28;20043;-63
2022/10/02 23:13:20;;;;;;;10.10;7.20;;;;;;;12.83;97.25;100940.78;10188882;28;20039;-62
2022/10/02 23:18:56;;;;;;;7.38;6.18;;;;;;;12.81;97.50;100948.09;10189110;28;20063;-62
2022/10/02 23:24:20;;;;;;;12.88;7.70;;;;;;;12.76;98.94;100950.28;10186634;28;21164;-63
2022/10/02 23:29:44;;;;;;;;;;;;;;;12.81;97.82;100961.44;10192223;28;20054;-63
2022/10/02 23:35:06;;;;;;;9.10;5.90;;;;;;;12.80;97.04;100967.75;10191318;28;19934;-63
2022/10/02 23:40:20;;;;;;;6.72;5.43;;;;;;;12.64;97.49;100954.75;10185153;28;20079;-64
2022/10/02 23:45:37;;;;;;;10.10;5.57;;;;;;;12.74;96.93;100968.22;10188110;28;20074;-63
2022/10/02 23:51:00;;;;;;;8.00;4.45;;;;;;;12.64;95.18;100952.09;10189330;28;20065;-63
2022/10/02 23:56:21;;;;;;;11.38;5.53;;;;;;;12.77;94.08;100973.31;10184766;28;20382;-63
